Time;durP1;ratioP1;P1;durP2;ratioP2;P2;SDS_P1;SDS_P2;PMS_P1;PMS_P2;Temp;Humidity;BMP_temperature;BMP_pressure;BME280_temperature;BME280_humidity;BME280_pressure;Samples;Min_cycle;Max_cycle;Signal;HPM_P1;HPM_P2
2023/01/10 00:00:23;;;;;;;26.10;13.23;;;6.10;99.90;;;;;;5001427;28;20225;-83
2023/01/10 00:02:50;;;;;;;20.03;11.83;;;6.10;99.90;;;;;;4991549;28;20233;-82
2023/01/10 00:05:18;;;;;;;18.20;11.27;;;6.10;99.90;;;;;;4990967;28;20734;-83
2023/01/10 00:07:45;;;;;;;25.93;11.93;;;6.10;99.90;;;;;;4981291;28;20230;-84
2023/01/10 00:10:13;;;;;;;21.73;11.70;;;6.10;99.90;;;;;;5004928;28;21007;-84
2023/01/10 00:15:26;;;;;;;18.63;10.00;;;6.10;99.90;;;;;;5006227;28;20992;-83
2023/01/10 00:17:55;;;;;;;19.40;9.83;;;6.10;99.90;;;;;;5005440;28;20217;-84
2023/01/10 00:20:22;;;;;;;21.60;10.13;;;6.10;99.90;;;;;;4997808;28;20832;-82
2023/01/10 00:22:50;;;;;;;19.63;9.33;;;6.10;99.90;;;;;;4987946;28;20225;-83
2023/01/10 00:25:19;;;;;;;21.33;9.60;;;6.10;99.90;;;;;;4981977;28;20237;-83
2023/01/10 00:27:52;;;;;;;19.23;9.40;;;6.10;99.90;;;;;;5001240;28;20235;-84
2023/01/10 00:30:19;;;;;;;20.17;9.03;;;6.10;99.90;;;;;;4990968;28;20228;-84
2023/01/10 00:32:46;;;;;;;18.87;8.47;;;6.10;99.90;;;;;;5005160;28;20280;-82
2023/01/10 00:35:13;;;;;;;22.03;9.00;;;6.20;99.90;;;;;;5005041;28;20766;-82
2023/01/10 00:37:40;;;;;;;23.20;9.53;;;6.20;99.90;;;;;;4998809;28;20245;-83
2023/01/10 00:40:08;;;;;;;16.37;8.00;;;6.20;99.90;;;;;;5000300;28;20256;-83
2023/01/10 00:45:24;;;;;;;17.00;7.87;;;6.20;99.90;;;;;;4988290;28;20370;-83
2023/01/10 00:47:53;;;;;;;21.37;7.63;;;6.20;99.90;;;;;;5001088;28;20225;-83
2023/01/10 00:50:20;;;;;;;18.33;7.50;;;6.20;99.90;;;;;;5000649;28;20228;-82
2023/01/10 00:52:46;;;;;;;25.90;8.13;;;6.20;99.90;;;;;;5000877;28;20217;-82
2023/01/10 00:55:13;;;;;;;22.10;7.83;;;6.20;99.90;;;;;;4991669;28;20229;-82
2023/01/10 00:57:40;;;;;;;16.43;7.33;;;6.10;99.90;;;;;;4984658;28;20233;-82
2023/01/10 01:00:09;;;;;;;19.03;7.20;;;6.20;99.90;;;;;;4986061;28;20230;-82
2023/01/10 01:02:38;;;;;;;18.57;7.57;;;6.20;99.90;;;;;;5002449;28;20311;-83
2023/01/10 01:05:06;;;;;;;18.03;6.57;;;6.10;99.90;;;;;;5002989;28;20311;-82
2023/01/10 01:07:33;;;;;;;14.33;6.70;;;6.10;99.90;;;;;;4992855;28;20231;-83
2023/01/10 01:12:44;;;;;;;16.83;6.93;;;6.10;99.90;;;;;;5001873;28;20219;-82
2023/01/10 01:15:11;;;;;;;16.47;6.27;;;6.10;99.90;;;;;;4991782;28;20226;-82
2023/01/10 01:17:41;;;;;;;15.47;6.50;;;6.10;99.90;;;;;;4987716;28;20231;-82
2023/01/10 01:20:09;;;;;;;12.73;6.13;;;6.10;99.90;;;;;;4999986;28;20216;-82
2023/01/10 01:22:36;;;;;;;20.80;7.23;;;6.20;99.90;;;;;;4982916;28;20318;-82
2023/01/10 01:25:04;;;;;;;19.23;6.90;;;6.10;99.90;;;;;;4990954;28;20225;-82
2023/01/10 01:27:31;;;;;;;15.30;6.90;;;6.20;99.90;;;;;;4990769;28;20317;-83
2023/01/10 01:29:59;;;;;;;12.40;6.23;;;6.20;99.90;;;;;;4993761;28;20402;-82
2023/01/10 01:32:26;;;;;;;13.47;6.47;;;6.20;99.90;;;;;;4995710;28;20258;-82
2023/01/10 01:34:55;;;;;;;12.33;7.10;;;6.10;99.90;;;;;;4987292;28;20297;-82
2023/01/10 01:37:26;;;;;;;14.60;6.40;;;6.20;99.90;;;;;;4986323;28;20237;-82
2023/01/10 01:39:55;;;;;;;15.07;5.93;;;6.10;99.90;;;;;;4978711;28;20876;-83
2023/01/10 01:42:27;;;;;;;14.37;5.77;;;6.20;99.90;;;;;;4994713;28;20230;-83
2023/01/10 01:45:36;;;;;;;15.50;6.00;;;6.00;99.90;;;;;;4999827;28;20288;-83
2023/01/10 01:48:14;;;;;;;15.50;5.80;;;6.00;99.90;;;;;;5001317;28;20232;-83
2023/01/10 01:50:46;;;;;;;18.10;5.97;;;6.00;99.90;;;;;;4977070;28;20213;-83
2023/01/10 01:53:16;;;;;;;12.97;5.50;;;6.00;99.90;;;;;;4997250;28;20699;-84
2023/01/10 01:55:48;;;;;;;15.97;5.87;;;5.90;99.90;;;;;;4982632;28;20738;-84
2023/01/10 01:58:18;;;;;;;10.97;5.83;;;5.90;99.90;;;;;;4984077;28;20760;-83
2023/01/10 02:00:45;;;;;;;12.47;5.83;;;5.80;99.90;;;;;;4987726;28;20874;-83
2023/01/10 02:03:13;;;;;;;16.50;6.73;;;5.80;99.90;;;;;;4989139;28;20752;-83
2023/01/10 02:05:42;;;;;;;17.13;6.20;;;5.80;99.90;;;;;;4983638;28;20247;-83
2023/01/10 02:08:12;;;;;;;14.63;6.23;;;5.70;99.90;;;;;;4986688;28;20229;-83
2023/01/10 02:10:47;;;;;;;13.70;6.27;;;5.70;99.90;;;;;;4980119;28;20245;-82
2023/01/10 02:13:18;;;;;;;13.57;6.23;;;5.70;99.90;;;;;;4980073;28;20331;-83
2023/01/10 02:15:45;;;;;;;15.10;6.97;;;5.70;99.90;;;;;;5001656;28;20789;-84
2023/01/10 02:18:12;;;;;;;14.43;6.30;;;5.70;99.90;;;;;;4978881;28;20258;-83
2023/01/10 02:20:50;;;;;;;14.93;6.33;;;5.70;99.90;;;;;;5000736;28;20251;-83
2023/01/10 02:23:46;;;;;;;17.37;6.40;;;5.70;99.90;;;;;;4997089;28;20229;-83
2023/01/10 02:26:43;;;;;;;11.53;6.17;;;5.70;99.90;;;;;;5001337;28;20449;-82
2023/01/10 02:29:41;;;;;;;17.17;6.87;;;5.70;99.90;;;;;;4983087;28;20812;-82
2023/01/10 02:32:34;;;;;;;13.93;6.40;;;5.70;99.90;;;;;;4983057;28;20270;-82
2023/01/10 02:35:11;;;;;;;12.57;6.33;;;5.70;99.90;;;;;;4996968;28;20237;-82
2023/01/10 02:37:45;;;;;;;13.83;6.50;;;5.70;99.90;;;;;;4995994;28;20221;-83
2023/01/10 02:40:22;;;;;;;12.03;6.20;;;5.70;99.90;;;;;;4979936;28;20577;-83
2023/01/10 02:42:55;;;;;;;17.03;6.37;;;5.70;99.90;;;;;;5001165;28;20284;-83
2023/01/10 02:45:28;;;;;;;12.80;6.27;;;5.70;99.90;;;;;;4985055;28;20742;-83
2023/01/10 02:47:58;;;;;;;13.37;6.17;;;5.70;99.90;;;;;;4989552;28;20228;-84
2023/01/10 02:50:30;;;;;;;17.70;6.40;;;5.70;99.90;;;;;;4987598;28;20280;-83
2023/01/10 02:53:00;;;;;;;14.17;6.43;;;5.60;99.90;;;;;;4983219;28;20288;-84
2023/01/10 02:55:34;;;;;;;14.97;6.50;;;5.60;99.90;;;;;;4986049;28;20246;-83
2023/01/10 02:58:11;;;;;;;10.37;6.00;;;5.60;99.90;;;;;;4981589;28;20222;-83
2023/01/10 03:00:45;;;;;;;18.97;6.33;;;5.60;99.90;;;;;;4998244;28;20302;-83
2023/01/10 03:03:32;;;;;;;14.60;6.07;;;5.60;99.90;;;;;;4980014;28;20232;-83
2023/01/10 03:06:11;;;;;;;11.87;6.50;;;5.60;99.90;;;;;;5001727;28;20278;-83
2023/01/10 03:08:42;;;;;;;17.90;6.57;;;5.60;99.90;;;;;;4986825;28;20313;-83
2023/01/10 03:11:10;;;;;;;11.60;6.40;;;5.60;99.90;;;;;;4995049;28;20227;-83
2023/01/10 03:13:43;;;;;;;13.67;6.40;;;5.60;99.90;;;;;;4996946;28;20285;-83
2023/01/10 03:16:15;;;;;;;13.03;6.10;;;5.60;99.90;;;;;;4975506;28;20222;-83
2023/01/10 03:18:56;;;;;;;14.80;5.97;;;5.60;99.90;;;;;;5001336;28;20304;-83
2023/01/10 03:21:27;;;;;;;12.80;6.70;;;5.60;99.90;;;;;;4984724;28;20229;-84
2023/01/10 03:24:00;;;;;;;11.07;5.83;;;5.60;99.90;;;;;;4997711;28;20224;-83
2023/01/10 03:26:33;;;;;;;18.00;7.00;;;5.60;99.90;;;;;;5004204;28;21043;-83
2023/01/10 03:29:03;;;;;;;13.77;6.50;;;5.60;99.90;;;;;;4983616;28;20737;-83
2023/01/10 03:31:36;;;;;;;15.17;5.90;;;5.60;99.90;;;;;;5002842;28;20330;-83
2023/01/10 03:34:04;;;;;;;14.17;6.43;;;5.60;99.90;;;;;;4999400;28;20236;-83
2023/01/10 03:36:36;;;;;;;14.23;5.90;;;5.60;99.90;;;;;;5000591;28;20291;-82
2023/01/10 03:39:11;;;;;;;13.03;6.17;;;5.60;99.90;;;;;;5007300;28;20225;-82
2023/01/10 03:41:48;;;;;;;17.77;6.80;;;5.60;99.90;;;;;;4984911;28;20455;-83
2023/01/10 03:47:09;;;;;;;13.77;5.57;;;5.50;99.90;;;;;;4998848;28;20714;-83
2023/01/10 03:49:39;;;;;;;13.73;6.00;;;5.50;99.90;;;;;;5007415;28;20315;-83
2023/01/10 03:52:09;;;;;;;11.33;5.40;;;5.50;99.90;;;;;;4988609;28;20311;-82
2023/01/10 03:54:35;;;;;;;13.60;5.73;;;5.40;99.90;;;;;;4991067;28;20241;-83
2023/01/10 03:57:04;;;;;;;12.37;5.40;;;5.40;99.90;;;;;;4998116;28;20399;-84
2023/01/10 03:59:31;;;;;;;18.67;6.20;;;5.30;99.90;;;;;;5009395;28;20220;-83
2023/01/10 04:01:58;;;;;;;12.67;5.73;;;5.30;99.90;;;;;;4987126;28;20728;-79
2023/01/10 04:04:25;;;;;;;9.27;5.30;;;5.20;99.90;;;;;;5006096;28;20243;-79
2023/01/10 04:06:53;;;;;;;18.57;5.70;;;5.10;99.90;;;;;;5006787;28;20238;-79
2023/01/10 04:09:20;;;;;;;15.33;5.60;;;5.00;99.90;;;;;;5006411;28;20238;-80
2023/01/10 04:11:47;;;;;;;18.37;5.73;;;5.00;99.90;;;;;;5006885;28;20240;-79
2023/01/10 04:14:17;;;;;;;11.27;5.50;;;4.90;99.90;;;;;;5006015;28;20231;-79
2023/01/10 04:16:44;;;;;;;11.93;5.43;;;4.90;99.90;;;;;;4989683;28;20318;-79
2023/01/10 04:19:11;;;;;;;10.80;4.73;;;4.80;99.90;;;;;;4988725;28;20228;-79
2023/01/10 04:21:37;;;;;;;13.47;5.30;;;4.70;99.90;;;;;;5007209;28;20251;-79
2023/01/10 04:24:06;;;;;;;14.77;5.23;;;4.70;99.90;;;;;;4988843;28;20238;-79
2023/01/10 04:26:33;;;;;;;12.63;5.00;;;4.60;99.90;;;;;;4989574;28;20318;-79
2023/01/10 04:29:00;;;;;;;14.87;4.90;;;4.60;99.90;;;;;;4989201;28;20233;-80
2023/01/10 04:31:26;;;;;;;12.23;4.77;;;4.50;99.90;;;;;;5006889;28;20783;-80
2023/01/10 04:33:55;;;;;;;10.93;4.67;;;4.50;99.90;;;;;;5007459;28;20262;-79
2023/01/10 04:36:22;;;;;;;14.40;4.73;;;4.40;99.90;;;;;;5007608;28;20316;-80
2023/01/10 04:38:49;;;;;;;12.50;5.27;;;4.40;99.90;;;;;;5007963;28;20848;-80
2023/01/10 04:41:17;;;;;;;12.93;4.60;;;4.40;99.90;;;;;;4989317;28;20250;-80
2023/01/10 04:43:43;;;;;;;11.57;4.50;;;4.40;99.90;;;;;;4987227;28;20219;-79
2023/01/10 04:46:10;;;;;;;14.87;4.93;;;4.40;99.90;;;;;;4987978;28;20235;-79
2023/01/10 04:48:37;;;;;;;9.03;4.63;;;4.40;99.90;;;;;;5007007;28;20260;-79
2023/01/10 04:51:04;;;;;;;15.40;4.80;;;4.50;99.90;;;;;;5005566;28;20280;-79
2023/01/10 04:53:31;;;;;;;15.57;4.83;;;4.50;99.90;;;;;;4989064;28;20310;-79
2023/01/10 04:56:03;;;;;;;13.87;4.00;;;4.60;99.90;;;;;;5006252;28;20246;-79
2023/01/10 04:58:32;;;;;;;11.93;4.40;;;4.60;99.90;;;;;;4989156;28;20911;-79
2023/01/10 05:00:59;;;;;;;11.90;4.13;;;4.60;99.90;;;;;;4986833;28;20307;-79
2023/01/10 05:03:26;;;;;;;11.93;4.30;;;4.60;99.90;;;;;;4985906;28;20695;-79
2023/01/10 05:05:57;;;;;;;10.93;4.17;;;4.60;99.90;;;;;;5005851;28;20306;-78
2023/01/10 05:08:24;;;;;;;9.07;4.23;;;4.70;99.90;;;;;;5006318;28;20313;-79
2023/01/10 05:10:51;;;;;;;11.37;4.90;;;4.70;99.90;;;;;;4988965;28;20250;-79
2023/01/10 05:13:17;;;;;;;16.40;4.10;;;4.70;99.90;;;;;;4988608;28;20326;-79
2023/01/10 05:15:48;;;;;;;11.40;4.73;;;4.70;99.90;;;;;;4989021;28;20235;-80
2023/01/10 05:18:15;;;;;;;11.70;4.63;;;4.80;99.90;;;;;;5007016;28;20276;-79
2023/01/10 05:20:41;;;;;;;12.47;3.70;;;4.80;99.90;;;;;;5006855;28;20237;-80
2023/01/10 05:23:08;;;;;;;14.37;4.33;;;4.80;99.90;;;;;;5008306;28;20227;-82
2023/01/10 05:25:36;;;;;;;10.77;3.80;;;4.90;99.90;;;;;;5005519;28;20253;-81
2023/01/10 05:28:03;;;;;;;16.30;3.73;;;4.90;99.90;;;;;;4990698;28;20691;-81
2023/01/10 05:30:30;;;;;;;14.07;3.60;;;4.90;99.90;;;;;;5001716;28;20312;-80
2023/01/10 05:32:58;;;;;;;33.97;5.20;;;4.90;99.90;;;;;;5002520;28;20238;-81
2023/01/10 05:35:25;;;;;;;13.17;3.73;;;5.00;99.90;;;;;;4994177;28;20224;-80
2023/01/10 05:37:53;;;;;;;8.13;3.67;;;5.00;99.90;;;;;;4988497;28;20235;-82
2023/01/10 05:40:20;;;;;;;26.67;4.30;;;5.00;99.90;;;;;;4984386;28;20558;-81
2023/01/10 05:42:47;;;;;;;15.07;4.10;;;5.00;99.90;;;;;;4985314;28;20314;-82
2023/01/10 05:45:14;;;;;;;16.50;3.87;;;5.10;99.90;;;;;;4975354;28;20239;-82
2023/01/10 05:47:40;;;;;;;16.30;3.50;;;5.00;99.90;;;;;;4982593;28;20222;-82
2023/01/10 05:50:10;;;;;;;19.07;3.93;;;5.10;99.90;;;;;;4999713;28;20287;-82
2023/01/10 05:52:37;;;;;;;13.33;3.40;;;5.00;99.90;;;;;;4998828;28;20234;-82
2023/01/10 05:55:06;;;;;;;11.37;3.60;;;5.00;99.90;;;;;;4986720;28;20251;-81
2023/01/10 05:57:33;;;;;;;18.43;3.87;;;5.00;99.90;;;;;;5000843;28;20980;-82
2023/01/10 06:00:00;;;;;;;8.57;3.10;;;5.00;99.90;;;;;;4984899;28;20300;-81
2023/01/10 06:02:26;;;;;;;8.73;3.10;;;5.00;99.90;;;;;;4996885;28;20226;-81
2023/01/10 06:04:54;;;;;;;10.13;3.57;;;5.00;99.90;;;;;;4987432;28;20700;-82
2023/01/10 06:07:22;;;;;;;14.37;3.70;;;4.90;99.90;;;;;;4990379;28;20790;-82
2023/01/10 06:09:51;;;;;;;10.70;3.17;;;4.90;99.90;;;;;;5003535;28;20241;-82
2023/01/10 06:12:18;;;;;;;14.73;3.40;;;4.90;99.90;;;;;;4984947;28;20320;-82
2023/01/10 06:14:45;;;;;;;13.13;3.70;;;4.90;99.90;;;;;;5001810;28;20227;-82
2023/01/10 06:17:12;;;;;;;14.40;3.63;;;4.80;99.90;;;;;;5005706;28;20657;-82
2023/01/10 06:19:39;;;;;;;13.07;3.50;;;4.80;99.90;;;;;;5003194;28;20227;-82
2023/01/10 06:22:06;;;;;;;12.30;3.90;;;4.80;99.90;;;;;;4990281;28;20873;-82
2023/01/10 06:24:34;;;;;;;15.40;4.13;;;4.70;99.90;;;;;;5005675;28;20219;-82
2023/01/10 06:27:01;;;;;;;18.87;3.60;;;4.70;99.90;;;;;;4985465;28;21023;-82
2023/01/10 06:29:27;;;;;;;9.87;3.70;;;4.60;99.90;;;;;;5006472;28;20317;-82
2023/01/10 06:31:54;;;;;;;11.33;3.77;;;4.60;99.90;;;;;;5012182;28;20223;-82
2023/01/10 06:34:21;;;;;;;14.57;3.80;;;4.50;99.90;;;;;;5001426;28;20219;-81
2023/01/10 06:36:47;;;;;;;13.47;3.80;;;4.50;99.90;;;;;;4985174;28;20234;-81
2023/01/10 06:39:14;;;;;;;11.13;4.30;;;4.50;99.90;;;;;;5000873;28;20319;-81
2023/01/10 06:41:43;;;;;;;13.40;4.07;;;4.40;99.90;;;;;;5008523;28;20224;-81
2023/01/10 06:44:10;;;;;;;13.50;4.70;;;4.40;99.90;;;;;;4985394;28;21768;-81
2023/01/10 06:46:37;;;;;;;15.70;4.77;;;4.30;99.90;;;;;;4984644;28;20254;-82
2023/01/10 06:49:05;;;;;;;6.63;3.70;;;4.30;99.90;;;;;;4989009;28;20257;-81
2023/01/10 06:51:32;;;;;;;18.83;4.27;;;4.30;99.90;;;;;;4982819;28;20351;-81
2023/01/10 06:53:59;;;;;;;16.30;3.97;;;4.20;99.90;;;;;;4985266;28;20227;-81
2023/01/10 06:56:26;;;;;;;10.63;3.67;;;4.20;99.90;;;;;;4994475;28;20225;-81
2023/01/10 06:58:54;;;;;;;17.23;4.07;;;4.20;99.90;;;;;;5001119;28;20246;-81
2023/01/10 07:01:21;;;;;;;14.90;4.43;;;4.20;99.90;;;;;;4993877;28;20811;-81
2023/01/10 07:03:48;;;;;;;17.70;4.07;;;4.20;99.90;;;;;;4989799;28;20951;-81
2023/01/10 07:06:15;;;;;;;14.80;3.87;;;4.20;99.90;;;;;;4999786;28;20230;-81
2023/01/10 07:08:44;;;;;;;13.07;3.60;;;4.10;99.90;;;;;;5001051;28;20227;-81
2023/01/10 07:11:13;;;;;;;14.00;4.60;;;4.10;99.90;;;;;;4992061;28;20956;-81
2023/01/10 07:13:39;;;;;;;14.23;3.33;;;4.10;99.90;;;;;;5005006;28;20800;-81
2023/01/10 07:16:10;;;;;;;11.20;3.60;;;4.10;99.90;;;;;;4987885;28;20603;-81
2023/01/10 07:18:38;;;;;;;15.87;3.37;;;4.10;99.90;;;;;;4994373;28;20234;-81
2023/01/10 07:21:05;;;;;;;13.73;3.53;;;4.00;99.90;;;;;;4982680;28;20222;-81
2023/01/10 07:23:31;;;;;;;14.47;3.57;;;4.00;99.90;;;;;;5000914;28;20254;-81
2023/01/10 07:26:01;;;;;;;18.30;4.93;;;4.00;99.90;;;;;;4980114;28;20222;-81
2023/01/10 07:28:28;;;;;;;15.47;4.17;;;4.00;99.90;;;;;;4984531;28;20688;-81
2023/01/10 07:30:57;;;;;;;10.43;4.30;;;4.00;99.90;;;;;;5001374;28;21026;-82
2023/01/10 07:33:25;;;;;;;15.67;3.77;;;4.00;99.90;;;;;;4986097;28;20238;-80
2023/01/10 07:35:52;;;;;;;13.47;4.00;;;4.00;99.90;;;;;;5007103;28;20753;-82
2023/01/10 07:38:18;;;;;;;15.57;4.47;;;3.90;99.90;;;;;;5010561;28;20249;-82
2023/01/10 07:40:45;;;;;;;11.27;3.93;;;3.90;99.90;;;;;;5013437;28;20223;-82
2023/01/10 07:43:12;;;;;;;14.60;4.10;;;3.90;99.90;;;;;;5011665;28;20263;-82
2023/01/10 07:45:38;;;;;;;13.37;4.77;;;3.90;99.90;;;;;;5012843;28;20649;-82
2023/01/10 07:48:06;;;;;;;19.33;4.07;;;3.90;99.90;;;;;;5007324;28;20255;-83
2023/01/10 07:50:40;;;;;;;13.10;4.40;;;3.90;99.90;;;;;;5009655;28;20722;-81
2023/01/10 07:53:07;;;;;;;15.93;4.07;;;3.90;99.90;;;;;;5013021;28;20474;-81
2023/01/10 07:55:37;;;;;;;18.13;5.37;;;3.90;99.90;;;;;;5013304;28;20651;-81
2023/01/10 07:58:05;;;;;;;14.20;4.03;;;3.90;99.90;;;;;;5012494;28;20230;-81
2023/01/10 08:00:33;;;;;;;11.67;4.87;;;3.90;99.90;;;;;;4995520;28;20250;-82
2023/01/10 08:03:00;;;;;;;16.23;4.70;;;3.90;99.90;;;;;;5011403;28;20226;-81
2023/01/10 08:05:27;;;;;;;14.60;4.47;;;3.90;99.90;;;;;;5012951;28;20233;-81
2023/01/10 08:07:58;;;;;;;15.03;5.10;;;3.90;99.90;;;;;;4995797;28;20230;-81
2023/01/10 08:10:27;;;;;;;22.30;5.67;;;3.90;99.90;;;;;;4995605;28;20278;-81
2023/01/10 08:12:58;;;;;;;14.40;5.10;;;3.90;99.90;;;;;;4995174;28;20785;-81
2023/01/10 08:15:27;;;;;;;15.00;4.50;;;4.00;99.90;;;;;;5011695;28;20317;-81
2023/01/10 08:17:54;;;;;;;17.70;5.07;;;4.00;99.90;;;;;;4994481;28;20954;-81
2023/01/10 08:20:21;;;;;;;14.90;4.93;;;4.10;99.90;;;;;;5012645;28;20265;-81
2023/01/10 08:22:47;;;;;;;15.90;5.93;;;4.20;99.90;;;;;;5011856;28;20257;-82
2023/01/10 08:25:18;;;;;;;15.53;5.13;;;4.20;99.90;;;;;;5009452;28;20327;-81
2023/01/10 08:27:48;;;;;;;13.30;5.03;;;4.30;99.90;;;;;;5011005;28;20619;-82
2023/01/10 08:30:17;;;;;;;15.77;5.50;;;4.40;99.90;;;;;;5009328;28;20285;-82
2023/01/10 08:32:44;;;;;;;14.93;5.37;;;4.50;99.90;;;;;;5010879;28;20232;-81
2023/01/10 08:35:11;;;;;;;14.10;5.17;;;4.50;99.90;;;;;;5009475;28;20241;-80
2023/01/10 08:37:38;;;;;;;12.17;5.00;;;4.60;99.90;;;;;;4994358;28;20231;-80
2023/01/10 08:40:06;;;;;;;18.83;5.07;;;4.60;99.90;;;;;;5007580;28;20898;-80
2023/01/10 08:42:34;;;;;;;21.87;5.83;;;4.70;99.90;;;;;;5011436;28;20225;-80
2023/01/10 08:45:01;;;;;;;19.83;5.70;;;4.80;99.90;;;;;;4994027;28;20223;-80
2023/01/10 08:47:28;;;;;;;14.33;5.30;;;4.90;99.90;;;;;;5007049;28;20663;-79
2023/01/10 08:49:55;;;;;;;16.23;5.77;;;4.90;99.90;;;;;;5011895;28;20675;-80
2023/01/10 08:52:21;;;;;;;16.00;4.90;;;4.90;99.90;;;;;;4993248;28;20226;-80
2023/01/10 08:54:49;;;;;;;14.67;5.37;;;5.10;99.90;;;;;;4991703;28;20239;-80
2023/01/10 08:57:17;;;;;;;17.20;5.13;;;5.00;99.90;;;;;;5008994;28;20235;-80
2023/01/10 08:59:49;;;;;;;12.33;5.00;;;5.10;99.90;;;;;;5010518;28;20301;-80
2023/01/10 09:02:16;;;;;;;16.13;6.00;;;5.20;99.90;;;;;;4997784;28;20223;-80
2023/01/10 09:04:42;;;;;;;14.63;6.17;;;5.20;99.90;;;;;;4990523;28;20834;-80
2023/01/10 09:07:09;;;;;;;17.00;6.43;;;5.30;99.90;;;;;;5010260;28;20546;-80
2023/01/10 09:09:38;;;;;;;16.87;6.50;;;5.40;99.90;;;;;;5008586;28;20240;-80
2023/01/10 09:12:53;;;;;;;15.83;6.33;;;5.30;99.90;;;;;;5010956;28;20244;-81
2023/01/10 09:14:54;;;;;;;18.50;6.93;;;5.40;99.90;;;;;;5007352;28;20229;-80
2023/01/10 09:17:21;;;;;;;16.13;6.90;;;5.40;99.90;;;;;;4991139;28;20220;-81
2023/01/10 09:19:47;;;;;;;19.43;7.17;;;5.50;99.90;;;;;;4995798;28;20317;-81
2023/01/10 09:22:14;;;;;;;16.83;7.17;;;5.50;99.90;;;;;;4994206;28;20808;-80
2023/01/10 09:24:42;;;;;;;14.50;7.67;;;5.50;99.90;;;;;;5007256;28;20240;-80
2023/01/10 09:27:12;;;;;;;18.40;7.33;;;5.60;99.90;;;;;;4988017;28;20224;-80
2023/01/10 09:29:39;;;;;;;17.87;7.73;;;5.60;99.90;;;;;;4990051;28;20225;-80
2023/01/10 09:32:08;;;;;;;16.70;6.93;;;5.70;99.90;;;;;;4995465;28;20229;-81
2023/01/10 09:34:39;;;;;;;12.70;7.43;;;5.70;99.90;;;;;;4989739;28;20232;-80
2023/01/10 09:37:06;;;;;;;16.70;7.33;;;5.70;99.90;;;;;;4991381;28;20254;-80
2023/01/10 09:39:34;;;;;;;17.93;6.97;;;5.70;99.90;;;;;;4992535;28;20616;-80
2023/01/10 09:42:12;;;;;;;15.23;7.67;;;5.70;99.90;;;;;;5006766;28;20231;-78
2023/01/10 09:44:45;;;;;;;15.27;7.30;;;5.80;99.90;;;;;;4995002;28;20587;-80
2023/01/10 09:47:25;;;;;;;14.73;7.73;;;5.80;99.90;;;;;;4981392;28;20224;-80
2023/01/10 09:50:02;;;;;;;13.80;7.47;;;5.80;99.90;;;;;;5009092;28;20236;-80
2023/01/10 09:52:33;;;;;;;22.30;7.53;;;5.80;99.90;;;;;;4996018;28;20300;-81
2023/01/10 09:55:19;;;;;;;14.50;7.23;;;5.90;99.90;;;;;;4990697;28;20227;-80
2023/01/10 09:57:46;;;;;;;19.53;6.67;;;5.90;99.90;;;;;;5008017;28;20239;-80
2023/01/10 10:00:19;;;;;;;15.63;7.63;;;5.90;99.90;;;;;;4973973;28;20227;-80
2023/01/10 10:02:51;;;;;;;15.73;7.73;;;5.90;99.90;;;;;;5008166;28;20866;-80
2023/01/10 10:05:20;;;;;;;15.73;7.57;;;5.90;99.90;;;;;;4993567;28;20256;-81
2023/01/10 10:07:53;;;;;;;16.73;7.73;;;5.90;99.90;;;;;;5006819;28;20319;-81
2023/01/10 10:10:23;;;;;;;22.57;10.30;;;6.00;99.90;;;;;;4983648;28;20224;-80
2023/01/10 10:12:59;;;;;;;17.33;7.47;;;6.00;99.90;;;;;;5006783;28;20332;-81
2023/01/10 10:15:34;;;;;;;13.97;6.90;;;6.00;99.90;;;;;;4987702;28;20704;-82
2023/01/10 10:18:15;;;;;;;16.53;7.00;;;6.00;99.90;;;;;;5006222;28;20770;-78
2023/01/10 10:20:51;;;;;;;16.60;6.77;;;6.00;99.90;;;;;;5004718;28;20221;-80
2023/01/10 10:23:41;;;;;;;16.57;7.27;;;6.10;99.90;;;;;;4983861;28;20237;-80
2023/01/10 10:26:16;;;;;;;16.70;6.70;;;6.10;99.90;;;;;;4989309;28;20303;-81
2023/01/10 10:29:14;;;;;;;19.47;7.83;;;6.10;99.90;;;;;;4985739;28;20229;-80
2023/01/10 10:32:06;;;;;;;17.50;6.60;;;6.10;99.90;;;;;;5003914;28;20218;-80
2023/01/10 10:34:39;;;;;;;24.20;7.33;;;6.10;99.90;;;;;;4984927;28;20227;-80
2023/01/10 10:37:12;;;;;;;16.97;6.70;;;6.10;99.90;;;;;;5003599;28;20233;-79
2023/01/10 10:39:44;;;;;;;15.63;6.60;;;6.10;99.90;;;;;;5007244;28;20795;-79
2023/01/10 10:42:15;;;;;;;15.57;7.10;;;6.20;99.90;;;;;;4984962;28;20228;-79
2023/01/10 10:44:47;;;;;;;17.93;7.13;;;6.20;99.90;;;;;;4987448;28;20230;-79
2023/01/10 10:47:16;;;;;;;16.43;7.07;;;6.20;99.90;;;;;;4999872;28;20253;-79
2023/01/10 10:49:50;;;;;;;18.07;7.17;;;6.20;99.90;;;;;;4983721;28;20241;-79
2023/01/10 10:52:23;;;;;;;20.93;8.67;;;6.10;99.90;;;;;;5003063;28;20308;-81
2023/01/10 10:54:51;;;;;;;17.47;7.93;;;6.10;99.90;;;;;;4999955;28;20262;-79
2023/01/10 10:57:18;;;;;;;16.23;8.77;;;6.10;99.90;;;;;;4996660;28;20608;-81
2023/01/10 10:59:53;;;;;;;15.90;7.77;;;6.10;99.90;;;;;;4996990;28;20228;-81
2023/01/10 11:02:23;;;;;;;17.93;8.03;;;6.10;99.90;;;;;;4993486;28;20220;-80
2023/01/10 11:04:54;;;;;;;13.33;7.10;;;6.20;99.90;;;;;;5002137;28;20232;-80
2023/01/10 11:07:23;;;;;;;17.23;7.97;;;6.10;99.90;;;;;;4991889;28;20245;-80
2023/01/10 11:09:54;;;;;;;18.57;8.00;;;6.10;99.90;;;;;;4992422;28;20234;-80
2023/01/10 11:12:27;;;;;;;14.43;7.87;;;6.10;99.90;;;;;;5003035;28;20227;-80
2023/01/10 11:14:53;;;;;;;14.13;8.03;;;6.10;99.90;;;;;;4990749;28;20278;-80
2023/01/10 11:17:24;;;;;;;19.23;8.40;;;6.10;99.90;;;;;;5005868;28;20220;-80
2023/01/10 11:20:03;;;;;;;14.47;8.20;;;6.20;99.90;;;;;;4987650;28;20231;-80
2023/01/10 11:22:34;;;;;;;16.00;8.03;;;6.20;99.90;;;;;;4983266;28;20310;-79
2023/01/10 11:25:02;;;;;;;18.17;8.03;;;6.20;99.90;;;;;;4982387;28;20227;-80
2023/01/10 11:27:32;;;;;;;19.50;8.10;;;6.20;99.90;;;;;;5000957;28;20219;-79
2023/01/10 11:30:03;;;;;;;19.93;8.30;;;6.20;99.90;;;;;;4996046;28;20710;-79
2023/01/10 11:32:34;;;;;;;16.57;7.57;;;6.20;99.90;;;;;;4999228;28;20227;-79
2023/01/10 11:35:08;;;;;;;15.83;8.03;;;6.20;99.90;;;;;;4986626;28;20828;-80
2023/01/10 11:37:36;;;;;;;17.70;7.50;;;6.20;99.90;;;;;;4980028;28;20308;-80
2023/01/10 11:40:19;;;;;;;17.97;8.77;;;6.30;99.90;;;;;;4982889;28;20223;-79
2023/01/10 11:42:47;;;;;;;18.77;8.23;;;6.30;99.90;;;;;;5001844;28;21454;-79
2023/01/10 11:45:39;;;;;;;17.93;8.47;;;6.30;99.90;;;;;;5002128;28;20224;-80
2023/01/10 11:48:18;;;;;;;16.87;7.90;;;6.30;99.90;;;;;;4980148;28;20226;-80
2023/01/10 11:50:51;;;;;;;16.20;7.10;;;6.30;99.90;;;;;;5000923;28;20221;-80
2023/01/10 11:53:37;;;;;;;14.87;7.73;;;6.40;99.90;;;;;;4988134;28;20701;-80
2023/01/10 11:56:06;;;;;;;17.00;7.50;;;6.40;99.90;;;;;;4992109;28;20700;-80
2023/01/10 11:58:37;;;;;;;19.70;7.93;;;6.40;99.90;;;;;;4987043;28;20229;-79
2023/01/10 12:01:04;;;;;;;16.80;7.47;;;6.40;99.90;;;;;;5002846;28;20225;-80
2023/01/10 12:03:35;;;;;;;15.00;7.17;;;6.40;99.90;;;;;;4985139;28;20254;-79
2023/01/10 12:06:15;;;;;;;23.63;8.77;;;6.40;99.90;;;;;;5003082;28;20736;-79
2023/01/10 12:08:43;;;;;;;16.17;7.70;;;6.40;99.90;;;;;;4989640;28;20315;-79
2023/01/10 12:11:26;;;;;;;18.50;8.00;;;6.50;99.90;;;;;;4999507;28;20231;-79
2023/01/10 12:13:54;;;;;;;21.83;8.20;;;6.40;99.90;;;;;;5007743;28;20225;-79
2023/01/10 12:16:23;;;;;;;22.70;7.77;;;6.50;99.90;;;;;;5007364;28;20228;-79
2023/01/10 12:18:51;;;;;;;19.73;8.83;;;6.40;99.90;;;;;;5008909;28;20794;-79
2023/01/10 12:21:31;;;;;;;18.50;8.47;;;6.50;99.90;;;;;;5000766;28;20939;-79
2023/01/10 12:24:01;;;;;;;16.93;7.53;;;6.50;99.90;;;;;;4987443;28;20244;-79
2023/01/10 12:26:30;;;;;;;21.00;8.77;;;6.60;99.90;;;;;;5004850;28;20227;-79
2023/01/10 12:29:07;;;;;;;19.07;8.10;;;6.60;99.90;;;;;;4989138;28;20886;-79
2023/01/10 12:31:36;;;;;;;15.93;8.30;;;6.60;99.90;;;;;;4989107;28;20287;-79
2023/01/10 12:34:10;;;;;;;19.00;8.87;;;6.70;99.90;;;;;;5001281;28;20700;-79
2023/01/10 12:36:44;;;;;;;17.83;8.57;;;6.70;99.90;;;;;;4998799;28;20263;-79
2023/01/10 12:39:16;;;;;;;13.83;7.90;;;6.80;99.90;;;;;;4978870;28;20233;-79
2023/01/10 12:44:41;;;;;;;18.57;8.73;;;6.80;99.90;;;;;;4982525;28;20233;-79
2023/01/10 12:47:17;;;;;;;15.83;8.10;;;6.80;99.90;;;;;;5006355;28;20636;-79
2023/01/10 12:49:49;;;;;;;19.10;8.03;;;6.80;99.90;;;;;;5004108;28;20229;-79
2023/01/10 12:52:22;;;;;;;19.67;8.80;;;6.90;99.90;;;;;;4988305;28;20224;-79
2023/01/10 12:54:48;;;;;;;23.60;9.93;;;6.80;99.90;;;;;;4980954;28;20226;-79
2023/01/10 12:57:24;;;;;;;19.87;8.97;;;6.90;99.90;;;;;;4978578;28;20307;-79
2023/01/10 12:59:51;;;;;;;19.97;8.97;;;6.90;99.90;;;;;;4997222;28;20227;-79
2023/01/10 13:02:22;;;;;;;19.20;8.97;;;6.90;99.90;;;;;;5002290;28;20229;-79
2023/01/10 13:04:53;;;;;;;18.57;8.83;;;6.90;99.90;;;;;;4989809;28;20234;-80
2023/01/10 13:07:23;;;;;;;21.87;9.17;;;6.90;99.90;;;;;;5004943;28;20312;-79
2023/01/10 13:09:51;;;;;;;20.20;8.87;;;7.00;99.90;;;;;;4985371;28;20226;-79
2023/01/10 13:12:23;;;;;;;20.13;8.53;;;7.00;99.90;;;;;;5003246;28;20230;-79
2023/01/10 13:14:54;;;;;;;16.20;8.90;;;7.00;99.90;;;;;;5000204;28;20311;-79
2023/01/10 13:17:35;;;;;;;17.83;9.13;;;7.00;99.90;;;;;;5002376;28;20218;-79